createdAt,value
2019-05-10T00:00:07.554Z,137.10
2019-05-10T00:02:54.037Z,136.32
2019-05-10T00:05:39.973Z,136.77
2019-05-10T00:08:36.474Z,139.10
2019-05-10T00:11:32.813Z,137.40
2019-05-10T00:14:20.876Z,137.10
2019-05-10T00:16:49.715Z,137.52
2019-05-10T00:19:16.777Z,136.77
2019-05-10T00:21:43.954Z,138.25
2019-05-10T00:24:10.987Z,138.00
2019-05-10T00:26:38.037Z,137.50
2019-05-10T00:29:05.498Z,137.15
2019-05-10T00:31:32.629Z,135.95
2019-05-10T00:33:59.762Z,137.40
2019-05-10T00:36:26.957Z,137.75
2019-05-10T00:38:55.214Z,137.45
2019-05-10T00:41:22.269Z,137.05
2019-05-10T00:43:49.507Z,137.22
2019-05-10T00:46:16.564Z,140.15
2019-05-10T00:48:43.645Z,137.28
2019-05-10T00:51:10.666Z,138.05
2019-05-10T00:53:39.651Z,137.07
2019-05-10T00:56:06.681Z,136.65
2019-05-10T00:58:33.749Z,136.62
2019-05-10T01:01:00.900Z,138.00
2019-05-10T01:03:28.012Z,136.77
2019-05-10T01:05:55.080Z,136.85
2019-05-10T01:08:22.166Z,139.18
2019-05-10T01:10:49.309Z,137.20
2019-05-10T01:13:16.703Z,137.45
2019-05-10T01:15:46.421Z,137.28
2019-05-10T01:18:13.123Z,136.52
2019-05-10T01:20:40.210Z,137.28
2019-05-10T01:23:07.241Z,137.22
2019-05-10T01:25:36.297Z,137.18
2019-05-10T01:28:03.512Z,137.15
2019-05-10T01:30:30.689Z,136.57
2019-05-10T01:32:57.898Z,136.85
2019-05-10T01:35:25.050Z,137.70
2019-05-10T01:37:52.415Z,137.07
2019-05-10T01:40:19.559Z,136.70
2019-05-10T01:42:46.954Z,136.37
2019-05-10T01:45:14.194Z,136.62
2019-05-10T01:47:41.252Z,136.62
2019-05-10T01:50:08.483Z,137.72
2019-05-10T01:52:35.586Z,137.32
2019-05-10T01:55:03.210Z,137.12
2019-05-10T01:57:30.291Z,137.40
2019-05-10T01:59:57.537Z,138.40
2019-05-10T02:02:24.542Z,137.07
2019-05-10T02:04:53.402Z,136.35
2019-05-10T02:07:20.446Z,137.68
2019-05-10T02:09:47.572Z,137.05
2019-05-10T02:12:14.864Z,136.77
2019-05-10T02:14:41.918Z,136.92
2019-05-10T02:17:09.058Z,137.40
2019-05-10T02:19:36.116Z,138.80
2019-05-10T02:22:03.528Z,136.60
2019-05-10T02:24:30.606Z,138.30
2019-05-10T02:26:57.883Z,138.10
2019-05-10T02:29:24.934Z,139.62
2019-05-10T02:31:51.991Z,138.55
2019-05-10T02:34:19.181Z,139.15
2019-05-10T02:36:46.209Z,138.52
2019-05-10T02:39:13.266Z,137.28
2019-05-10T02:41:40.319Z,137.88
2019-05-10T02:44:07.389Z,137.07
2019-05-10T02:46:34.549Z,137.97
2019-05-10T02:49:01.632Z,138.18
2019-05-10T02:51:28.678Z,137.07
2019-05-10T02:53:55.937Z,139.35
2019-05-10T02:56:30.568Z,138.47
2019-05-10T02:58:54.391Z,139.37
2019-05-10T03:01:24.027Z,137.90
2019-05-10T03:03:53.619Z,139.52
2019-05-10T03:06:22.872Z,138.90
2019-05-10T03:08:51.220Z,138.65
2019-05-10T03:11:18.604Z,138.57
2019-05-10T03:13:48.665Z,137.50
2019-05-10T03:16:18.681Z,137.57
2019-05-10T03:18:47.839Z,138.00
2019-05-10T03:21:16.865Z,138.37
2019-05-10T03:23:43.954Z,139.35
2019-05-10T03:26:11.019Z,138.92
2019-05-10T03:28:38.087Z,139.75
2019-05-10T03:31:05.399Z,140.85
2019-05-10T03:33:32.465Z,139.47
2019-05-10T03:35:59.583Z,140.05
2019-05-10T03:38:28.640Z,139.15
2019-05-10T03:40:55.705Z,138.82
2019-05-10T03:43:22.777Z,138.77
2019-05-10T03:45:49.867Z,138.62
2019-05-10T03:48:16.975Z,138.72
2019-05-10T03:50:44.101Z,138.85
2019-05-10T03:53:11.181Z,138.18
2019-05-10T03:55:38.233Z,138.15
2019-05-10T03:58:05.473Z,140.32
2019-05-10T04:00:32.491Z,138.45
2019-05-10T04:02:59.548Z,139.07
2019-05-10T04:05:26.603Z,138.47
2019-05-10T04:07:53.674Z,138.05
2019-05-10T04:10:21.193Z,139.07
2019-05-10T04:12:49.784Z,140.12
2019-05-10T04:15:16.980Z,138.85
2019-05-10T04:17:44.072Z,139.62
2019-05-10T04:20:11.330Z,139.65
2019-05-10T04:22:38.382Z,139.70
2019-05-10T04:25:06.094Z,139.65
2019-05-10T04:27:33.460Z,139.75
2019-05-10T04:30:00.659Z,141.40
2019-05-10T04:32:30.525Z,140.35
2019-05-10T04:34:57.615Z,137.43
2019-05-10T04:37:24.678Z,138.65
2019-05-10T04:39:51.731Z,139.43
2019-05-10T04:42:18.754Z,138.95
2019-05-10T04:44:46.032Z,138.82
2019-05-10T04:47:13.095Z,140.95
2019-05-10T04:49:41.359Z,139.88
2019-05-10T04:52:11.184Z,139.77
2019-05-10T04:54:38.290Z,140.07
2019-05-10T04:57:05.419Z,141.32
2019-05-10T04:59:32.475Z,142.07
2019-05-10T05:01:59.687Z,140.88
2019-05-10T05:04:26.883Z,143.02
2019-05-10T05:06:54.025Z,140.68
2019-05-10T05:09:21.085Z,144.72
2019-05-10T05:11:48.129Z,141.53
2019-05-10T05:14:15.186Z,142.45
2019-05-10T05:16:42.248Z,139.95
2019-05-10T05:19:09.330Z,140.82
2019-05-10T05:21:36.434Z,140.57
2019-05-10T05:24:03.485Z,141.75
2019-05-10T05:26:30.649Z,140.90
2019-05-10T05:28:57.726Z,143.52
2019-05-10T05:31:24.797Z,141.60
2019-05-10T05:33:51.851Z,143.90
2019-05-10T05:36:18.936Z,143.17
2019-05-10T05:38:46.930Z,141.47
2019-05-10T05:41:15.124Z,141.25
2019-05-10T05:43:46.512Z,142.90
2019-05-10T05:46:14.560Z,140.80
2019-05-10T05:48:41.960Z,142.20
2019-05-10T05:51:09.035Z,141.07
2019-05-10T05:53:42.447Z,143.10
2019-05-10T05:56:12.668Z,144.57
2019-05-10T05:58:44.572Z,141.37
2019-05-10T06:01:07.728Z,142.35
2019-05-10T06:03:34.790Z,142.68
2019-05-10T06:06:15.531Z,142.05
2019-05-10T06:08:32.202Z,142.60
2019-05-10T06:11:00.061Z,141.55
2019-05-10T06:13:30.341Z,142.57
2019-05-10T06:15:59.895Z,142.07
2019-05-10T06:18:25.547Z,141.82
2019-05-10T06:20:56.868Z,141.82
2019-05-10T06:23:29.332Z,142.07
2019-05-10T06:25:53.939Z,141.73
2019-05-10T06:28:28.677Z,143.32
2019-05-10T06:30:50.044Z,143.47
2019-05-10T06:33:17.085Z,143.57
2019-05-10T06:35:44.135Z,143.62
2019-05-10T06:38:11.217Z,143.22
2019-05-10T06:40:46.537Z,143.70
2019-05-10T06:43:13.515Z,143.52
2019-05-10T06:45:37.813Z,144.65
2019-05-10T06:48:04.987Z,143.32
2019-05-10T06:50:32.064Z,144.80
2019-05-10T06:53:00.375Z,144.15
2019-05-10T06:55:28.047Z,142.25
2019-05-10T06:57:59.480Z,142.25
2019-05-10T07:00:24.143Z,142.77
2019-05-10T07:02:51.173Z,142.90
2019-05-10T07:05:19.458Z,144.22
2019-05-10T07:07:46.737Z,143.93
2019-05-10T07:10:18.948Z,143.87
2019-05-10T07:12:42.956Z,142.80
2019-05-10T07:15:12.059Z,141.95
2019-05-10T07:17:45.311Z,141.22
2019-05-10T07:20:08.167Z,141.15
2019-05-10T07:22:35.189Z,142.43
2019-05-10T07:25:04.772Z,143.37
2019-05-10T07:27:37.047Z,144.30
2019-05-10T07:30:01.985Z,142.15
2019-05-10T07:32:30.580Z,143.80
2019-05-10T07:35:00.817Z,144.95
2019-05-10T07:37:28.856Z,143.75
2019-05-10T07:39:55.930Z,143.22
2019-05-10T07:42:23.112Z,143.82
2019-05-10T07:44:50.169Z,143.52
2019-05-10T07:47:23.942Z,143.22
2019-05-10T07:49:48.342Z,140.65
2019-05-10T07:52:15.494Z,141.97
2019-05-10T07:54:45.250Z,140.43
2019-05-10T07:57:12.523Z,141.47
2019-05-10T07:59:50.172Z,142.65
2019-05-10T08:02:13.071Z,143.40
2019-05-10T08:04:38.477Z,143.07
2019-05-10T08:07:09.792Z,143.62
2019-05-10T08:09:51.224Z,142.50
2019-05-10T08:12:35.225Z,144.55
2019-05-10T08:15:02.037Z,141.12
2019-05-10T08:17:29.086Z,142.18
2019-05-10T08:19:56.421Z,142.37
2019-05-10T08:22:23.465Z,140.77
2019-05-10T08:24:54.473Z,141.30
2019-05-10T08:27:19.490Z,141.10
2019-05-10T08:29:52.981Z,140.77
2019-05-10T08:32:19.391Z,141.73
2019-05-10T08:34:52.091Z,142.95
2019-05-10T08:37:19.403Z,143.82
2019-05-10T08:39:47.876Z,140.95
2019-05-10T08:42:32.115Z,142.30
2019-05-10T08:44:42.740Z,143.07
2019-05-10T08:47:16.183Z,140.88
2019-05-10T08:49:52.227Z,140.18
2019-05-10T08:52:07.808Z,140.95
2019-05-10T08:54:34.854Z,140.75
2019-05-10T08:57:05.390Z,140.90
2019-05-10T08:59:31.224Z,140.32
2019-05-10T09:01:58.286Z,140.73
2019-05-10T09:04:33.465Z,140.73
2019-05-10T09:06:59.809Z,140.45
2019-05-10T09:09:25.097Z,143.45
2019-05-10T09:11:57.837Z,141.77
2019-05-10T09:14:24.194Z,142.53
2019-05-10T09:17:00.729Z,142.22
2019-05-10T09:19:27.618Z,142.87
2019-05-10T09:21:52.829Z,144.55
2019-05-10T09:24:18.513Z,144.32
2019-05-10T09:26:51.609Z,144.87
2019-05-10T09:29:16.780Z,144.35
2019-05-10T09:31:50.467Z,145.65
2019-05-10T09:34:14.596Z,147.78
2019-05-10T09:36:46.714Z,148.22
2019-05-10T09:39:17.545Z,148.78
2019-05-10T09:41:42.159Z,147.68
2019-05-10T09:44:10.086Z,147.00
2019-05-10T09:46:37.192Z,146.43
2019-05-10T09:49:14.076Z,145.15
2019-05-10T09:51:33.356Z,146.43
2019-05-10T09:54:00.634Z,145.72
2019-05-10T09:56:36.399Z,145.82
2019-05-10T09:58:58.464Z,145.35
2019-05-10T10:01:28.199Z,146.45
2019-05-10T10:03:58.351Z,148.07
2019-05-10T10:06:29.526Z,145.87
2019-05-10T10:08:57.777Z,147.17
2019-05-10T10:11:27.645Z,149.53
2019-05-10T10:13:59.174Z,146.40
2019-05-10T10:16:23.482Z,146.18
2019-05-10T10:18:50.663Z,146.93
2019-05-10T10:21:18.942Z,144.87
2019-05-10T10:23:46.997Z,143.93
2019-05-10T10:26:20.812Z,143.22
2019-05-10T10:28:43.152Z,143.13
2019-05-10T10:31:10.172Z,144.50
2019-05-10T10:33:37.933Z,144.35
2019-05-10T10:36:09.918Z,144.22
2019-05-10T10:38:37.178Z,143.80
2019-05-10T10:41:03.756Z,144.05
2019-05-10T10:43:31.210Z,143.55
2019-05-10T10:45:58.523Z,144.20
2019-05-10T10:48:28.275Z,145.12
2019-05-10T10:50:56.219Z,145.47
2019-05-10T10:53:23.623Z,143.78
2019-05-10T10:55:54.581Z,143.25
2019-05-10T10:58:19.911Z,144.87
2019-05-10T11:00:48.107Z,142.65
2019-05-10T11:03:15.635Z,141.20
2019-05-10T11:05:43.010Z,143.17
2019-05-10T11:08:12.125Z,142.80
2019-05-10T11:10:40.488Z,143.35
2019-05-10T11:13:14.024Z,143.35
2019-05-10T11:15:38.637Z,143.47
2019-05-10T11:18:07.192Z,141.07
2019-05-10T11:20:35.382Z,142.18
2019-05-10T11:23:02.431Z,144.05
2019-05-10T11:25:30.000Z,144.50
2019-05-10T11:27:59.272Z,142.75
2019-05-10T11:30:26.056Z,146.53
2019-05-10T11:32:53.100Z,145.72
2019-05-10T11:35:30.312Z,145.72
2019-05-10T11:37:50.890Z,145.95
2019-05-10T11:40:27.760Z,145.70
2019-05-10T11:42:51.035Z,143.70
2019-05-10T11:45:20.905Z,143.95
2019-05-10T11:47:53.393Z,146.35
2019-05-10T11:50:28.980Z,145.45
2019-05-10T11:52:46.373Z,143.60
2019-05-10T11:55:13.518Z,143.87
2019-05-10T11:57:44.174Z,144.05
2019-05-10T12:00:23.886Z,145.45
2019-05-10T12:03:01.092Z,143.80
2019-05-10T12:05:17.753Z,145.75
2019-05-10T12:10:16.824Z,143.97
2019-05-10T12:12:54.055Z,144.22
2019-05-10T12:15:24.511Z,143.20
2019-05-10T12:17:47.634Z,144.87
2019-05-10T12:20:16.868Z,143.52
2019-05-10T12:22:47.429Z,142.22
2019-05-10T12:25:35.909Z,144.50
2019-05-10T12:26:49.399Z,144.80
2019-05-10T12:27:48.686Z,143.00
2019-05-10T12:30:15.922Z,143.28
2019-05-10T12:32:55.624Z,143.17
2019-05-10T12:35:11.886Z,144.47
2019-05-10T12:37:39.562Z,148.35
2019-05-10T12:40:11.880Z,146.53
2019-05-10T12:42:37.132Z,143.82
2019-05-10T12:45:11.695Z,144.45
2019-05-10T12:47:41.284Z,145.72
2019-05-10T12:50:09.185Z,144.97
2019-05-10T12:52:36.329Z,143.43
2019-05-10T12:55:03.632Z,142.68
2019-05-10T12:57:30.838Z,144.62
2019-05-10T12:59:58.236Z,144.17
2019-05-10T13:02:25.572Z,145.87
2019-05-10T13:04:54.150Z,147.20
2019-05-10T13:07:21.500Z,148.93
2019-05-10T13:09:50.151Z,148.05
2019-05-10T13:12:17.587Z,147.20
2019-05-10T13:14:46.585Z,146.87
2019-05-10T13:17:16.884Z,147.02
2019-05-10T13:19:42.658Z,145.85
2019-05-10T13:22:09.721Z,143.47
2019-05-10T13:24:36.798Z,144.97
2019-05-10T13:27:04.466Z,144.95
2019-05-10T13:29:31.536Z,142.53
2019-05-10T13:31:59.593Z,145.32
2019-05-10T13:34:26.685Z,145.05
2019-05-10T13:36:53.762Z,145.53
2019-05-10T13:39:25.704Z,145.65
2019-05-10T13:41:49.983Z,145.92
2019-05-10T13:44:17.013Z,146.90
2019-05-10T13:46:44.064Z,146.25
2019-05-10T13:49:12.587Z,148.02
2019-05-10T13:51:39.935Z,149.75
2019-05-10T13:54:07.002Z,145.90
2019-05-10T13:56:34.150Z,148.10
2019-05-10T13:59:15.359Z,147.32
2019-05-10T14:01:34.323Z,146.13
2019-05-10T14:04:10.661Z,145.05
2019-05-10T14:06:49.503Z,146.65
2019-05-10T14:10:10.826Z,148.50
2019-05-10T14:15:54.307Z,148.78
2019-05-10T14:18:23.203Z,150.55
2019-05-10T14:20:53.969Z,146.68
2019-05-10T14:23:22.450Z,143.95
2019-05-10T14:25:49.671Z,144.02
2019-05-10T14:28:17.464Z,145.90
2019-05-10T14:30:46.892Z,145.57
2019-05-10T14:33:17.237Z,145.28
2019-05-10T14:35:44.646Z,147.10
2019-05-10T14:38:12.005Z,144.00
2019-05-10T14:40:39.110Z,144.95
2019-05-10T14:43:06.184Z,144.80
2019-05-10T14:45:33.248Z,146.25
2019-05-10T14:48:00.432Z,147.35
2019-05-10T14:50:28.480Z,145.15
2019-05-10T14:52:55.750Z,147.53
2019-05-10T14:55:28.041Z,147.40
2019-05-10T14:57:51.853Z,146.47
2019-05-10T15:00:28.234Z,146.37
2019-05-10T15:03:19.276Z,146.13
2019-05-10T15:05:55.614Z,144.77
2019-05-10T15:08:20.270Z,146.22
2019-05-10T15:10:47.297Z,146.20
2019-05-10T15:13:19.578Z,146.75
2019-05-10T15:15:43.449Z,146.70
2019-05-10T15:18:10.554Z,147.60
2019-05-10T15:20:37.609Z,145.82
2019-05-10T15:23:11.598Z,144.50
2019-05-10T15:25:55.451Z,145.60
2019-05-10T15:28:07.843Z,145.35
2019-05-10T15:30:39.322Z,146.28
2019-05-10T15:33:04.203Z,146.37
2019-05-10T15:35:32.708Z,146.37
2019-05-10T15:37:59.824Z,146.43
2019-05-10T15:40:26.882Z,145.77
2019-05-10T15:42:53.971Z,147.15
2019-05-10T15:45:21.344Z,146.72
2019-05-10T15:47:51.742Z,147.13
2019-05-10T15:50:18.767Z,147.15
2019-05-10T15:52:48.529Z,147.98
2019-05-10T15:55:16.429Z,147.87
2019-05-10T15:57:44.416Z,146.50
2019-05-10T16:00:11.737Z,146.77
2019-05-10T16:02:38.917Z,145.70
2019-05-10T16:05:23.212Z,145.62
2019-05-10T16:07:51.605Z,147.25
2019-05-10T16:10:28.293Z,145.77
2019-05-10T16:12:55.733Z,144.13
2019-05-10T16:15:22.791Z,145.80
2019-05-10T16:17:53.649Z,145.25
2019-05-10T16:20:22.876Z,148.00
2019-05-10T16:22:51.089Z,147.47
2019-05-10T16:25:18.162Z,149.45
2019-05-10T16:27:45.269Z,146.98
2019-05-10T16:30:17.827Z,146.62
2019-05-10T16:32:41.957Z,146.95
2019-05-10T16:35:14.592Z,146.07
2019-05-10T16:37:39.281Z,147.07
2019-05-10T16:40:07.250Z,145.02
2019-05-10T16:42:35.891Z,147.32
2019-05-10T16:45:03.651Z,146.87
2019-05-10T16:47:31.072Z,147.30
2019-05-10T16:49:58.236Z,148.60
2019-05-10T16:52:26.329Z,147.90
2019-05-10T16:54:57.871Z,147.75
2019-05-10T16:57:23.651Z,149.00
2019-05-10T16:59:50.906Z,148.65
2019-05-10T17:02:21.351Z,146.93
2019-05-10T17:04:50.304Z,147.30
2019-05-10T17:07:20.478Z,149.12
2019-05-10T17:10:01.098Z,147.62
2019-05-10T17:16:21.581Z,143.72
2019-05-10T17:18:49.924Z,144.90
2019-05-10T17:21:17.816Z,144.00
2019-05-10T17:23:46.829Z,146.55
2019-05-10T17:26:14.090Z,146.28
2019-05-10T17:28:41.271Z,143.78
2019-05-10T17:31:09.713Z,144.75
2019-05-10T17:33:42.672Z,143.37
2019-05-10T17:36:08.843Z,144.62
2019-05-10T17:38:35.570Z,144.82
2019-05-10T17:41:02.684Z,142.87
2019-05-10T17:43:29.955Z,142.77
2019-05-10T17:45:57.021Z,144.95
2019-05-10T17:48:25.136Z,144.65
2019-05-10T17:50:52.317Z,145.45
2019-05-10T17:53:22.347Z,147.45
2019-05-10T17:55:55.860Z,146.80
2019-05-10T17:58:19.212Z,145.22
2019-05-10T18:00:46.368Z,144.68
2019-05-10T18:03:14.860Z,145.25
2019-05-10T18:05:46.591Z,145.25
2019-05-10T18:08:11.285Z,145.43
2019-05-10T18:10:38.883Z,146.25
2019-05-10T18:13:06.169Z,146.40
2019-05-10T18:15:34.913Z,146.10
2019-05-10T18:18:02.823Z,146.65
2019-05-10T18:20:41.026Z,146.18
2019-05-10T18:23:00.257Z,148.20
2019-05-10T18:25:29.327Z,147.25
2019-05-10T18:27:58.485Z,144.28
2019-05-10T18:30:25.625Z,146.15
2019-05-10T18:33:11.628Z,144.43
2019-05-10T18:35:35.541Z,145.65
2019-05-10T18:38:21.234Z,146.22
2019-05-10T18:41:19.069Z,143.10
2019-05-10T18:43:58.240Z,142.70
2019-05-10T18:46:29.794Z,142.90
2019-05-10T18:49:06.811Z,143.75
2019-05-10T18:51:36.146Z,148.02
2019-05-10T18:54:11.661Z,145.30
2019-05-10T18:56:54.780Z,144.87
2019-05-10T18:59:22.075Z,145.97
2019-05-10T19:01:51.146Z,145.57
2019-05-10T19:04:19.200Z,144.90
2019-05-10T19:06:49.869Z,146.60
2019-05-10T19:09:15.282Z,146.15
2019-05-10T19:11:42.362Z,144.87
2019-05-10T19:14:11.647Z,146.20
2019-05-10T19:16:39.004Z,149.57
2019-05-10T19:19:09.442Z,149.20
2019-05-10T19:21:37.997Z,146.95
2019-05-10T19:24:05.583Z,147.20
2019-05-10T19:26:32.824Z,165.05
2019-05-10T19:29:05.379Z,157.07
2019-05-10T19:31:31.531Z,147.55
2019-05-10T19:33:59.583Z,146.35
2019-05-10T19:36:28.562Z,147.37
2019-05-10T19:38:55.762Z,146.87
2019-05-10T19:41:25.569Z,149.15
2019-05-10T19:43:55.826Z,147.68
2019-05-10T19:46:22.824Z,144.85
2019-05-10T19:48:50.250Z,147.10
2019-05-10T19:51:22.865Z,146.00
2019-05-10T19:53:50.153Z,144.25
2019-05-10T19:56:21.429Z,147.25
2019-05-10T19:58:49.502Z,146.20
2019-05-10T20:01:16.705Z,145.38
2019-05-10T20:03:43.778Z,142.00
2019-05-10T20:06:11.604Z,145.87
2019-05-10T20:08:38.739Z,145.50
2019-05-10T20:11:06.007Z,144.82
2019-05-10T20:13:33.093Z,144.30
2019-05-10T20:16:01.351Z,145.70
2019-05-10T20:18:28.734Z,147.13
2019-05-10T20:20:55.833Z,145.32
2019-05-10T20:23:23.030Z,144.50
2019-05-10T20:25:50.343Z,145.87
2019-05-10T20:28:20.484Z,146.87
2019-05-10T20:30:47.674Z,143.32
2019-05-10T20:33:16.856Z,144.22
2019-05-10T20:35:45.583Z,144.15
2019-05-10T20:38:12.731Z,142.62
2019-05-10T20:40:39.869Z,143.78
2019-05-10T20:43:07.364Z,144.43
2019-05-10T20:45:34.452Z,143.07
2019-05-10T20:48:02.528Z,144.53
2019-05-10T20:50:30.772Z,144.32
2019-05-10T20:52:57.879Z,145.87
2019-05-10T20:55:24.997Z,145.28
2019-05-10T20:57:52.399Z,144.17
2019-05-10T21:00:23.806Z,145.32
2019-05-10T21:02:50.917Z,144.77
2019-05-10T21:05:18.009Z,143.10
2019-05-10T21:07:45.597Z,143.85
2019-05-10T21:10:13.338Z,145.12
2019-05-10T21:12:40.637Z,144.43
2019-05-10T21:15:10.658Z,142.80
2019-05-10T21:17:38.057Z,145.80
2019-05-10T21:20:07.954Z,144.35
2019-05-10T21:22:36.459Z,143.28
2019-05-10T21:25:04.186Z,144.90
2019-05-10T21:27:31.977Z,144.13
2019-05-10T21:30:01.750Z,142.75
2019-05-10T21:32:49.030Z,149.45
2019-05-10T21:35:16.122Z,145.32
2019-05-10T21:37:43.518Z,145.43
2019-05-10T21:40:10.925Z,144.93
2019-05-10T21:42:39.324Z,142.30
2019-05-10T21:45:06.992Z,141.90
2019-05-10T21:47:34.243Z,143.00
2019-05-10T21:50:01.323Z,143.75
2019-05-10T21:52:28.382Z,143.93
2019-05-10T21:54:55.589Z,145.35
2019-05-10T21:57:22.662Z,143.90
2019-05-10T21:59:51.002Z,142.13
2019-05-10T22:02:20.982Z,143.90
2019-05-10T22:04:50.766Z,145.00
2019-05-10T22:07:18.399Z,143.80
2019-05-10T22:09:45.954Z,145.17
2019-05-10T22:12:13.335Z,142.98
2019-05-10T22:14:40.479Z,142.82
2019-05-10T22:17:07.646Z,142.43
2019-05-10T22:19:34.733Z,141.53
2019-05-10T22:22:02.480Z,143.47
2019-05-10T22:24:30.846Z,145.45
2019-05-10T22:26:57.927Z,143.30
2019-05-10T22:29:25.017Z,143.57
2019-05-10T22:31:52.523Z,142.62
2019-05-10T22:34:19.754Z,143.22
2019-05-10T22:36:49.218Z,142.70
2019-05-10T22:39:17.432Z,143.43
2019-05-10T22:41:44.568Z,143.85
2019-05-10T22:44:13.155Z,142.13
2019-05-10T22:46:40.291Z,145.25
2019-05-10T22:49:07.365Z,144.32
2019-05-10T22:51:34.571Z,143.55
2019-05-10T22:54:01.676Z,142.20
2019-05-10T22:56:37.417Z,142.05
2019-05-10T22:59:05.578Z,142.98
2019-05-10T23:01:32.900Z,141.03
2019-05-10T23:04:00.018Z,140.75
2019-05-10T23:06:27.084Z,140.85
2019-05-10T23:08:54.284Z,141.55
2019-05-10T23:11:21.379Z,141.65
2019-05-10T23:13:48.488Z,141.73
2019-05-10T23:16:15.678Z,141.62
2019-05-10T23:18:42.911Z,140.50
2019-05-10T23:21:11.034Z,141.77
2019-05-10T23:23:38.137Z,141.15
2019-05-10T23:26:05.338Z,140.62
2019-05-10T23:28:34.579Z,140.00
2019-05-10T23:31:04.463Z,142.98
2019-05-10T23:33:31.565Z,140.32
2019-05-10T23:36:02.322Z,140.80
2019-05-10T23:38:29.483Z,142.28
2019-05-10T23:40:56.560Z,141.25
2019-05-10T23:43:23.710Z,139.80
2019-05-10T23:45:51.248Z,140.52
2019-05-10T23:48:18.331Z,139.92
2019-05-10T23:50:45.389Z,140.80
2019-05-10T23:53:12.449Z,141.80
2019-05-10T23:55:39.613Z,139.85
2019-05-10T23:58:06.650Z,138.43
